Time;durP1;ratioP1;P1;durP2;ratioP2;P2;SDS_P1;SDS_P2;PMS_P1;PMS_P2;Temp;Humidity;BMP_temperature;BMP_pressure;BME280_temperature;BME280_humidity;BME280_pressure;Samples;Min_cycle;Max_cycle;Signal;HPM_P1;HPM_P2
2023/10/10 00:02:17;;;;;;;13.63;8.45;;;15.70;99.90;;;;;;5036164;28;20046;-47
2023/10/10 00:04:44;;;;;;;13.02;8.82;;;15.70;99.90;;;;;;5036223;28;20060;-50
2023/10/10 00:07:14;;;;;;;13.38;8.93;;;15.60;99.90;;;;;;5035632;28;20080;-50
2023/10/10 00:09:44;;;;;;;10.95;7.63;;;15.60;99.90;;;;;;5035741;28;20041;-45
2023/10/10 00:12:13;;;;;;;12.32;8.27;;;15.60;99.90;;;;;;5035745;28;20041;-47
2023/10/10 00:14:40;;;;;;;13.23;8.48;;;15.60;99.90;;;;;;5036238;28;20060;-51
2023/10/10 00:17:08;;;;;;;10.88;8.30;;;15.50;99.90;;;;;;5036113;28;20056;-46
2023/10/10 00:19:43;;;;;;;11.27;7.53;;;15.50;99.90;;;;;;5035928;28;20072;-50
2023/10/10 00:22:10;;;;;;;12.93;8.95;;;15.50;99.90;;;;;;5035947;28;20423;-47
2023/10/10 00:24:37;;;;;;;11.07;7.93;;;15.50;99.90;;;;;;5036062;28;20057;-48
2023/10/10 00:27:12;;;;;;;14.43;8.02;;;15.50;99.90;;;;;;5035699;28;20045;-49
2023/10/10 00:29:43;;;;;;;10.00;7.68;;;15.50;99.90;;;;;;5035717;28;20449;-49
2023/10/10 00:32:16;;;;;;;10.70;8.35;;;15.40;99.90;;;;;;5035757;28;20045;-48
2023/10/10 00:34:47;;;;;;;10.27;7.85;;;15.40;99.90;;;;;;5034684;28;20441;-46
2023/10/10 00:37:16;;;;;;;11.35;8.07;;;15.40;99.90;;;;;;5035674;28;20053;-48
2023/10/10 00:39:52;;;;;;;12.73;7.95;;;15.30;99.90;;;;;;5035742;28;20064;-47
2023/10/10 00:42:36;;;;;;;12.52;7.95;;;15.30;99.90;;;;;;5035277;28;20452;-53
2023/10/10 00:45:04;;;;;;;10.57;7.75;;;15.30;99.90;;;;;;5035781;28;20041;-47
2023/10/10 00:47:35;;;;;;;10.70;8.00;;;15.30;99.90;;;;;;5035269;28;20111;-48
2023/10/10 00:50:07;;;;;;;14.10;7.88;;;15.20;99.90;;;;;;5035689;28;20120;-47
2023/10/10 00:52:36;;;;;;;12.48;8.07;;;15.20;99.90;;;;;;5035410;28;20076;-49
2023/10/10 00:55:04;;;;;;;11.18;7.63;;;15.20;99.90;;;;;;5034708;28;20068;-47
2023/10/10 00:57:35;;;;;;;10.98;7.53;;;15.10;99.90;;;;;;5017486;28;20068;-48
2023/10/10 01:00:07;;;;;;;11.32;7.93;;;15.10;99.90;;;;;;5034275;28;20050;-49
2023/10/10 01:02:34;;;;;;;9.10;7.40;;;15.10;99.90;;;;;;5033374;28;20064;-45
2023/10/10 01:05:11;;;;;;;10.43;7.38;;;15.10;99.90;;;;;;5034768;28;20061;-49
2023/10/10 01:07:38;;;;;;;10.30;7.50;;;15.10;99.90;;;;;;5033514;28;20069;-52
2023/10/10 01:10:12;;;;;;;11.32;7.50;;;15.00;99.90;;;;;;5035256;28;20096;-46
2023/10/10 01:12:39;;;;;;;10.68;7.40;;;15.00;99.90;;;;;;5033469;28;20045;-51
2023/10/10 01:15:16;;;;;;;11.30;7.15;;;15.00;99.90;;;;;;5034822;28;20043;-47
2023/10/10 01:17:43;;;;;;;10.40;7.53;;;15.00;99.90;;;;;;5034782;28;20073;-46
2023/10/10 01:20:33;;;;;;;10.00;7.28;;;14.90;99.90;;;;;;5034689;28;20119;-50
2023/10/10 01:23:02;;;;;;;11.90;7.20;;;14.90;99.90;;;;;;5032980;28;20191;-50
2023/10/10 01:28:02;;;;;;;10.93;7.05;;;14.90;99.90;;;;;;5033170;28;20475;-50
2023/10/10 01:30:56;;;;;;;9.95;7.18;;;14.80;99.90;;;;;;5034783;28;20064;-51
2023/10/10 01:33:29;;;;;;;9.63;6.97;;;14.80;99.90;;;;;;5033314;28;20076;-49
2023/10/10 01:35:56;;;;;;;9.52;7.13;;;14.80;99.90;;;;;;5034495;28;20037;-52
2023/10/10 01:38:27;;;;;;;10.02;6.70;;;14.80;99.90;;;;;;5033012;28;20135;-50
2023/10/10 01:40:54;;;;;;;12.80;7.05;;;14.80;99.90;;;;;;5034241;28;20507;-59
2023/10/10 01:43:21;;;;;;;9.25;7.22;;;14.80;99.90;;;;;;5034074;28;20038;-48
2023/10/10 01:46:08;;;;;;;11.63;7.22;;;14.70;99.90;;;;;;5032903;28;20046;-47
2023/10/10 01:48:43;;;;;;;8.98;6.85;;;14.70;99.90;;;;;;5034584;28;20385;-44
2023/10/10 01:51:10;;;;;;;12.30;7.57;;;14.70;99.90;;;;;;5033952;28;20037;-51
2023/10/10 01:53:40;;;;;;;11.63;7.30;;;14.60;99.90;;;;;;5034006;28;20107;-49
2023/10/10 01:56:07;;;;;;;10.13;6.90;;;14.60;99.90;;;;;;5034347;28;20103;-49
2023/10/10 01:58:37;;;;;;;8.82;6.65;;;14.60;99.90;;;;;;5032754;28;20554;-48
2023/10/10 02:01:04;;;;;;;8.95;6.43;;;14.60;99.90;;;;;;5032638;28;20144;-48
2023/10/10 02:03:31;;;;;;;11.98;7.00;;;14.60;99.90;;;;;;5032358;28;20097;-48
2023/10/10 02:05:59;;;;;;;13.15;6.97;;;14.50;99.90;;;;;;5033685;28;20132;-49
2023/10/10 02:08:26;;;;;;;10.73;7.30;;;14.60;99.90;;;;;;5032414;28;20068;-51
2023/10/10 02:10:55;;;;;;;9.05;7.15;;;14.50;99.90;;;;;;5032608;28;20132;-49
2023/10/10 02:13:22;;;;;;;8.80;7.05;;;14.50;99.90;;;;;;5032599;28;20500;-51
2023/10/10 02:15:51;;;;;;;8.88;6.95;;;14.50;99.90;;;;;;5033880;28;20484;-49
2023/10/10 02:18:37;;;;;;;11.85;7.28;;;14.50;99.90;;;;;;5033604;28;20053;-50
2023/10/10 02:21:09;;;;;;;10.13;7.15;;;14.40;99.90;;;;;;5033820;28;20404;-45
2023/10/10 02:23:36;;;;;;;13.85;7.25;;;14.50;99.90;;;;;;5033854;28;20073;-51
2023/10/10 02:26:14;;;;;;;10.75;7.32;;;14.40;99.90;;;;;;5031855;28;20099;-46
2023/10/10 02:28:48;;;;;;;9.30;7.28;;;14.40;99.90;;;;;;5033083;28;20045;-47
2023/10/10 02:31:16;;;;;;;9.10;7.30;;;14.40;99.90;;;;;;5033173;28;20034;-47
2023/10/10 02:33:49;;;;;;;13.10;7.28;;;14.40;99.90;;;;;;5033672;28;20041;-51
2023/10/10 02:36:29;;;;;;;10.50;6.95;;;14.30;99.90;;;;;;5031979;28;20045;-48
2023/10/10 02:39:01;;;;;;;9.90;7.35;;;14.30;99.90;;;;;;5032952;28;20045;-46
2023/10/10 02:41:51;;;;;;;10.02;7.30;;;14.30;99.90;;;;;;5031853;28;20084;-50
2023/10/10 02:47:00;;;;;;;9.18;6.53;;;14.30;99.90;;;;;;5033285;28;20128;-51
2023/10/10 02:51:55;;;;;;;9.70;7.10;;;14.30;99.90;;;;;;5033049;28;20041;-50
2023/10/10 02:56:56;;;;;;;10.60;7.05;;;14.20;99.90;;;;;;5032828;28;20049;-51
2023/10/10 02:59:23;;;;;;;9.02;6.80;;;14.20;99.90;;;;;;5032323;28;20103;-47
2023/10/10 03:01:59;;;;;;;10.68;6.85;;;14.20;99.90;;;;;;5031680;28;20041;-46
2023/10/10 03:07:19;;;;;;;10.43;7.50;;;14.20;99.90;;;;;;5032826;28;20415;-46
2023/10/10 03:10:07;;;;;;;9.43;6.63;;;14.20;99.90;;;;;;5031643;28;20050;-51
2023/10/10 03:12:37;;;;;;;8.75;6.60;;;14.20;99.90;;;;;;5031897;28;20053;-46
2023/10/10 03:15:27;;;;;;;9.52;7.18;;;14.10;99.90;;;;;;5031997;28;20048;-51
2023/10/10 03:20:38;;;;;;;10.20;7.22;;;14.10;99.90;;;;;;5031919;28;20507;-46
2023/10/10 03:31:03;;;;;;;9.13;6.72;;;14.00;99.90;;;;;;5035753;28;20052;-48
2023/10/10 03:33:37;;;;;;;9.73;7.28;;;14.00;99.90;;;;;;5035841;28;20520;-52
2023/10/10 03:36:41;;;;;;;10.88;7.50;;;14.00;99.90;;;;;;5035667;28;20045;-52
2023/10/10 03:39:15;;;;;;;8.77;7.47;;;14.00;99.90;;;;;;5034105;28;20408;-47
2023/10/10 05:23:30;;;;;;;12.90;7.57;;;13.20;99.90;;;;;;5034441;28;20510;-48
2023/10/10 05:25:59;;;;;;;12.75;8.05;;;13.20;99.90;;;;;;5034335;28;20108;-53
2023/10/10 05:28:30;;;;;;;11.55;7.93;;;13.20;99.90;;;;;;5034793;28;20038;-47
2023/10/10 05:30:57;;;;;;;14.20;8.35;;;13.20;99.90;;;;;;5034754;28;20087;-53
2023/10/10 05:33:26;;;;;;;10.73;7.90;;;13.20;99.90;;;;;;5033281;28;20076;-49
2023/10/10 05:35:53;;;;;;;11.73;7.70;;;13.20;99.90;;;;;;5033963;28;20045;-45
2023/10/10 05:38:20;;;;;;;11.13;8.10;;;13.20;99.90;;;;;;5032786;28;20441;-46
2023/10/10 05:40:47;;;;;;;10.15;8.02;;;13.20;99.90;;;;;;5033080;28;20050;-49
2023/10/10 05:43:17;;;;;;;13.18;7.47;;;13.20;99.90;;;;;;5032962;28;20431;-46
2023/10/10 05:45:44;;;;;;;12.90;8.00;;;13.20;99.90;;;;;;5032716;28;20463;-47
2023/10/10 05:48:12;;;;;;;10.45;7.75;;;13.30;99.90;;;;;;5032686;28;20487;-45
2023/10/10 05:50:42;;;;;;;12.88;8.10;;;13.20;99.90;;;;;;5032863;28;20069;-48
2023/10/10 05:53:09;;;;;;;11.40;8.32;;;13.20;99.90;;;;;;5032625;28;20065;-46
2023/10/10 05:55:37;;;;;;;13.52;8.23;;;13.20;99.90;;;;;;5033083;28;20480;-44
2023/10/10 05:58:04;;;;;;;9.88;7.28;;;13.20;99.90;;;;;;5032738;28;20073;-45
2023/10/10 06:00:37;;;;;;;12.27;7.95;;;13.20;99.90;;;;;;5034071;28;20049;-47
2023/10/10 06:03:07;;;;;;;16.55;8.25;;;13.20;99.90;;;;;;5034027;28;20037;-45
2023/10/10 06:05:34;;;;;;;10.75;7.63;;;13.20;99.90;;;;;;5034189;28;20129;-45
2023/10/10 06:08:01;;;;;;;13.02;8.65;;;13.20;99.90;;;;;;5033640;28;20037;-50
2023/10/10 06:10:31;;;;;;;13.60;8.38;;;13.20;99.90;;;;;;5033888;28;20048;-44
2023/10/10 06:12:58;;;;;;;14.60;8.65;;;13.20;99.90;;;;;;5034229;28;20220;-46
2023/10/10 06:15:25;;;;;;;10.63;8.02;;;13.20;99.90;;;;;;5034255;28;20076;-48
2023/10/10 06:17:57;;;;;;;13.90;8.52;;;13.20;99.90;;;;;;5032159;28;20396;-46
2023/10/10 06:20:24;;;;;;;11.95;8.88;;;13.20;99.90;;;;;;5034219;28;20037;-46
2023/10/10 06:22:55;;;;;;;13.45;8.82;;;13.10;99.90;;;;;;5033997;28;20372;-45
2023/10/10 06:25:23;;;;;;;12.23;8.40;;;13.10;99.90;;;;;;5032615;28;20079;-49
2023/10/10 06:27:57;;;;;;;17.40;7.93;;;13.10;99.90;;;;;;5032146;28;20048;-48
2023/10/10 06:30:24;;;;;;;12.43;7.78;;;13.20;99.90;;;;;;5033716;28;20041;-44
2023/10/10 06:32:51;;;;;;;13.43;8.07;;;13.20;99.90;;;;;;5033859;28;20049;-48
2023/10/10 06:37:45;;;;;;;13.05;8.07;;;13.20;99.90;;;;;;5033555;28;20049;-47
2023/10/10 06:40:14;;;;;;;12.75;8.00;;;13.20;99.90;;;;;;5033410;28;20550;-48
2023/10/10 06:42:46;;;;;;;10.30;7.75;;;13.30;99.90;;;;;;5033559;28;20045;-46
2023/10/10 06:45:21;;;;;;;11.73;8.88;;;13.40;99.90;;;;;;5033294;28;20045;-44
2023/10/10 06:47:50;;;;;;;12.70;8.52;;;13.50;99.90;;;;;;5033410;28;20064;-51
2023/10/10 06:50:21;;;;;;;11.65;9.02;;;13.60;99.90;;;;;;5033303;28;20038;-48
2023/10/10 06:52:52;;;;;;;13.95;9.52;;;13.80;99.90;;;;;;5032119;28;20041;-49
2023/10/10 06:55:36;;;;;;;17.33;9.50;;;13.90;99.90;;;;;;5033558;28;20077;-50
2023/10/10 06:58:05;;;;;;;17.23;9.93;;;14.00;99.90;;;;;;5032231;28;20052;-50
2023/10/10 07:00:52;;;;;;;13.07;9.48;;;14.10;99.90;;;;;;5033358;28;20128;-47
2023/10/10 07:03:30;;;;;;;14.05;9.77;;;14.20;99.90;;;;;;5033068;28;20120;-49
2023/10/10 07:05:57;;;;;;;14.18;10.20;;;14.30;99.90;;;;;;5032867;28;20389;-47
2023/10/10 07:08:27;;;;;;;16.52;10.20;;;14.30;99.90;;;;;;5033256;28;20045;-44
2023/10/10 07:10:53;;;;;;;13.38;9.60;;;14.40;99.90;;;;;;5032769;28;20041;-48
2023/10/10 07:13:21;;;;;;;13.20;10.15;;;14.40;99.90;;;;;;5033362;28;20365;-47
2023/10/10 07:15:51;;;;;;;16.25;10.95;;;14.50;99.90;;;;;;5033093;28;20196;-53
2023/10/10 07:18:22;;;;;;;15.38;10.38;;;14.50;99.90;;;;;;5032893;28;20046;-49
2023/10/10 07:21:07;;;;;;;17.35;11.00;;;14.50;99.90;;;;;;5033314;28;20441;-46
2023/10/10 07:23:37;;;;;;;13.73;10.40;;;14.60;99.90;;;;;;5033086;28;20038;-48
2023/10/10 07:26:05;;;;;;;17.98;10.90;;;14.60;99.90;;;;;;5033035;28;20117;-48
2023/10/10 07:28:54;;;;;;;16.23;10.80;;;14.70;99.90;;;;;;5032456;28;20041;-48
2023/10/10 07:31:20;;;;;;;18.58;11.52;;;14.70;99.90;;;;;;5032653;28;20191;-50
2023/10/10 07:33:55;;;;;;;15.60;10.77;;;14.70;99.90;;;;;;5032952;28;20401;-48
2023/10/10 07:36:24;;;;;;;13.85;10.32;;;14.80;99.90;;;;;;5033078;28;20050;-48
2023/10/10 07:39:04;;;;;;;18.08;11.27;;;14.80;99.90;;;;;;5032993;28;20546;-47
2023/10/10 07:41:33;;;;;;;16.85;10.70;;;14.90;99.90;;;;;;5032966;28;20115;-47
2023/10/10 07:44:00;;;;;;;16.35;10.60;;;14.90;99.90;;;;;;5033110;28;20045;-49
2023/10/10 07:46:27;;;;;;;15.80;10.68;;;15.00;99.90;;;;;;5032933;28;20392;-51
2023/10/10 07:48:54;;;;;;;15.88;10.38;;;15.10;99.90;;;;;;5032551;28;20397;-50
2023/10/10 07:51:28;;;;;;;14.07;10.27;;;15.20;99.90;;;;;;5032681;28;20451;-48
2023/10/10 07:54:10;;;;;;;15.43;10.85;;;15.30;99.90;;;;;;5032571;28;20056;-49
2023/10/10 07:56:45;;;;;;;16.73;10.35;;;15.40;99.90;;;;;;5032648;28;20516;-52
2023/10/10 07:59:12;;;;;;;14.73;9.63;;;15.50;99.90;;;;;;5032186;28;20088;-49
2023/10/10 08:01:40;;;;;;;13.55;10.07;;;15.60;99.90;;;;;;5031197;28;20056;-48
2023/10/10 08:04:07;;;;;;;14.48;9.70;;;15.60;99.90;;;;;;5032523;28;20444;-47
2023/10/10 08:06:34;;;;;;;18.00;8.93;;;15.70;99.90;;;;;;5032505;28;20044;-46
2023/10/10 08:11:44;;;;;;;13.55;8.80;;;15.90;99.90;;;;;;5035790;28;20037;-47
2023/10/10 08:14:11;;;;;;;12.80;8.70;;;16.00;99.90;;;;;;5036233;28;20484;-52
2023/10/10 08:16:38;;;;;;;13.15;8.90;;;16.00;99.90;;;;;;5036103;28;20168;-48
2023/10/10 08:19:05;;;;;;;10.93;7.95;;;16.10;99.90;;;;;;5036000;28;20419;-46
2023/10/10 08:21:38;;;;;;;13.45;8.40;;;16.20;99.90;;;;;;5035698;28;20061;-46
2023/10/10 08:24:06;;;;;;;13.45;8.32;;;16.30;99.90;;;;;;5035922;28;20417;-48
2023/10/10 08:26:39;;;;;;;17.80;7.68;;;16.40;99.90;;;;;;5035990;28;20041;-46
2023/10/10 08:29:09;;;;;;;13.45;7.88;;;16.50;99.90;;;;;;5035817;28;20046;-44
2023/10/10 08:31:36;;;;;;;13.65;7.18;;;16.60;99.90;;;;;;5035785;28;20405;-47
2023/10/10 08:34:03;;;;;;;11.25;6.57;;;16.70;99.90;;;;;;5035717;28;20052;-50
2023/10/10 08:36:31;;;;;;;12.77;6.95;;;16.70;99.90;;;;;;5035474;28;20056;-45
2023/10/10 08:38:58;;;;;;;12.23;6.43;;;16.80;99.90;;;;;;5035440;28;20450;-50
2023/10/10 08:41:25;;;;;;;11.18;6.13;;;16.80;99.90;;;;;;5035444;28;20083;-47
2023/10/10 08:43:53;;;;;;;11.73;5.32;;;16.80;99.90;;;;;;5035116;28;20052;-48
2023/10/10 08:46:21;;;;;;;10.88;5.97;;;16.90;99.90;;;;;;5035633;28;20053;-49
2023/10/10 08:48:48;;;;;;;9.05;5.50;;;17.00;99.90;;;;;;5034275;28;20045;-47
2023/10/10 08:51:15;;;;;;;10.40;5.32;;;17.10;99.90;;;;;;5035532;28;20042;-49
2023/10/10 08:53:42;;;;;;;8.48;4.90;;;17.20;99.90;;;;;;5035383;28;20559;-51
2023/10/10 08:56:09;;;;;;;8.90;4.57;;;17.30;99.90;;;;;;5035704;28;20053;-45
2023/10/10 08:58:36;;;;;;;10.80;5.00;;;17.30;99.90;;;;;;5035183;28;20037;-50
2023/10/10 09:01:05;;;;;;;10.30;4.70;;;17.40;99.90;;;;;;5035330;28;20049;-47
2023/10/10 09:03:34;;;;;;;9.80;4.72;;;17.50;99.90;;;;;;5035236;28;20037;-48
2023/10/10 09:06:02;;;;;;;14.25;5.45;;;17.60;99.90;;;;;;5034972;28;20559;-49
2023/10/10 09:08:29;;;;;;;7.82;4.60;;;17.60;99.90;;;;;;5035020;28;20468;-48
2023/10/10 09:10:56;;;;;;;15.13;4.70;;;17.60;99.90;;;;;;5034942;28;20045;-50
2023/10/10 09:13:25;;;;;;;6.63;4.70;;;17.70;99.90;;;;;;5033252;28;20033;-44
2023/10/10 09:15:55;;;;;;;10.65;4.93;;;17.80;99.90;;;;;;5033499;28;20041;-44
2023/10/10 09:18:23;;;;;;;10.57;4.30;;;17.80;99.90;;;;;;5016895;28;20412;-49
2023/10/10 09:20:50;;;;;;;9.27;4.50;;;17.90;99.90;;;;;;5034331;28;20049;-48
2023/10/10 09:23:17;;;;;;;8.82;4.10;;;18.00;99.90;;;;;;5034423;28;20544;-46
2023/10/10 09:25:48;;;;;;;7.28;4.35;;;18.00;99.90;;;;;;5034704;28;20049;-50
2023/10/10 09:28:15;;;;;;;11.07;4.55;;;18.10;99.90;;;;;;5034764;28;20472;-52
2023/10/10 09:30:49;;;;;;;9.60;4.32;;;18.20;99.90;;;;;;5034415;28;20099;-50
2023/10/10 09:35:48;;;;;;;8.45;4.60;;;18.40;99.90;;;;;;5034811;28;20130;-48
2023/10/10 09:38:20;;;;;;;8.15;4.43;;;18.50;99.90;;;;;;5034615;28;20053;-47
2023/10/10 09:40:48;;;;;;;10.07;4.57;;;18.50;99.90;;;;;;5034661;28;20046;-47
2023/10/10 09:43:24;;;;;;;8.55;4.10;;;18.60;99.90;;;;;;5034890;28;20424;-47
2023/10/10 09:45:55;;;;;;;8.68;4.70;;;18.60;99.90;;;;;;5034464;28;20041;-57
2023/10/10 09:48:33;;;;;;;8.85;4.15;;;18.70;99.90;;;;;;5034828;28;20080;-58
2023/10/10 09:51:16;;;;;;;9.27;4.45;;;18.80;99.90;;;;;;5034291;28;20049;-55
2023/10/10 09:53:46;;;;;;;8.10;4.72;;;18.90;99.90;;;;;;5033687;28;20063;-58
2023/10/10 09:56:13;;;;;;;6.15;4.03;;;18.90;99.90;;;;;;5033848;28;20053;-57
2023/10/10 09:58:43;;;;;;;6.35;3.67;;;19.00;99.90;;;;;;5033892;28;20046;-58
2023/10/10 10:01:14;;;;;;;9.43;4.47;;;19.10;99.90;;;;;;5034074;28;20055;-56
2023/10/10 10:03:49;;;;;;;9.77;3.90;;;19.10;99.90;;;;;;5034340;28;20099;-57
2023/10/10 10:08:56;;;;;;;8.23;4.28;;;19.10;99.90;;;;;;5033741;28;20072;-59
2023/10/10 10:11:25;;;;;;;11.40;4.20;;;19.10;99.90;;;;;;5033699;28;20099;-57
2023/10/10 10:13:53;;;;;;;11.27;4.20;;;19.10;99.90;;;;;;5033942;28;20132;-56
2023/10/10 10:16:38;;;;;;;;;;;19.10;99.90;;;;;;5034319;28;20042;-53
2023/10/10 10:19:15;;;;;;;10.20;4.10;;;19.10;99.90;;;;;;5033855;28;19925;-53
2023/10/10 10:22:06;;;;;;;6.50;4.10;;;19.20;99.90;;;;;;5033678;28;20160;-58
2023/10/10 10:24:33;;;;;;;8.23;3.80;;;19.20;99.90;;;;;;5033825;28;20479;-53
2023/10/10 10:27:00;;;;;;;12.13;3.88;;;19.40;99.90;;;;;;5033348;28;20053;-55
2023/10/10 10:29:36;;;;;;;7.43;3.67;;;19.50;99.90;;;;;;5033710;28;20040;-54
2023/10/10 10:32:03;;;;;;;7.28;3.65;;;19.50;99.90;;;;;;5033769;28;20049;-59
2023/10/10 10:36:58;;;;;;;5.97;3.25;;;19.70;99.90;;;;;;5033108;28;20088;-55
2023/10/10 10:39:34;;;;;;;8.55;3.83;;;19.80;99.90;;;;;;5033166;28;20049;-51
2023/10/10 10:42:01;;;;;;;9.10;3.95;;;19.90;99.90;;;;;;5033125;28;20088;-56
2023/10/10 10:44:28;;;;;;;7.07;3.58;;;20.00;99.90;;;;;;5032879;28;20037;-51
2023/10/10 10:46:56;;;;;;;6.72;3.17;;;20.10;99.90;;;;;;5033417;28;20045;-57
2023/10/10 10:49:28;;;;;;;7.10;4.25;;;20.20;99.90;;;;;;5033464;28;20111;-51
2023/10/10 10:52:17;;;;;;;9.85;3.45;;;20.20;99.90;;;;;;5033492;28;20048;-54
2023/10/10 10:54:41;;;;;;;7.80;3.90;;;20.30;99.90;;;;;;5033086;28;20056;-56
2023/10/10 10:57:27;;;;;;;6.80;3.78;;;20.40;99.90;;;;;;5033228;28;20045;-57
2023/10/10 11:00:20;;;;;;;7.68;3.70;;;20.50;99.90;;;;;;5033409;28;20393;-55
2023/10/10 11:02:51;;;;;;;10.05;4.07;;;20.50;99.90;;;;;;5033183;28;20480;-54
2023/10/10 11:05:18;;;;;;;7.70;3.30;;;20.60;99.90;;;;;;5033055;28;20072;-54
2023/10/10 11:07:44;;;;;;;9.82;3.58;;;20.70;99.90;;;;;;5032977;28;20496;-60
2023/10/10 11:10:11;;;;;;;6.75;3.40;;;20.70;99.90;;;;;;5033733;28;20044;-55
2023/10/10 11:12:38;;;;;;;10.05;3.97;;;20.90;99.90;;;;;;5033478;28;20046;-56
2023/10/10 11:15:08;;;;;;;7.88;3.60;;;21.00;99.90;;;;;;5033636;28;20084;-55
2023/10/10 11:17:38;;;;;;;7.45;3.95;;;21.00;99.90;;;;;;5033319;28;20112;-54
2023/10/10 11:20:26;;;;;;;7.53;3.90;;;21.00;99.90;;;;;;5033537;28;20049;-52
2023/10/10 11:23:11;;;;;;;6.10;3.70;;;21.10;99.90;;;;;;5033895;28;20049;-55
2023/10/10 11:25:58;;;;;;;8.85;4.03;;;21.10;99.90;;;;;;5033560;28;20053;-52
2023/10/10 11:28:36;;;;;;;12.57;4.00;;;21.10;99.90;;;;;;5033066;28;20477;-55
2023/10/10 11:31:07;;;;;;;8.05;4.18;;;21.10;99.90;;;;;;5033506;28;20034;-57
2023/10/10 11:34:09;;;;;;;10.02;4.00;;;21.20;99.90;;;;;;5033421;28;20540;-49
2023/10/10 11:36:21;;;;;;;7.78;4.15;;;21.30;99.90;;;;;;5033389;28;20427;-51
2023/10/10 11:38:55;;;;;;;8.68;3.67;;;21.30;99.90;;;;;;5033283;28;20041;-56
2023/10/10 11:41:28;;;;;;;7.78;3.75;;;21.30;99.90;;;;;;5033573;28;20469;-55
2023/10/10 11:43:55;;;;;;;10.52;4.10;;;21.30;99.90;;;;;;5033756;28;20052;-57
2023/10/10 11:46:21;;;;;;;10.07;4.05;;;21.30;99.90;;;;;;5019329;28;20600;-53
2023/10/10 11:48:48;;;;;;;7.15;3.85;;;21.30;99.90;;;;;;5037025;28;20045;-52
2023/10/10 11:51:15;;;;;;;7.32;3.70;;;21.30;99.90;;;;;;5037285;28;20049;-55
2023/10/10 11:53:46;;;;;;;7.78;3.60;;;21.40;99.90;;;;;;5035279;28;20089;-53
2023/10/10 11:56:17;;;;;;;7.22;3.45;;;21.40;99.90;;;;;;5037071;28;20057;-57
2023/10/10 11:58:49;;;;;;;6.07;3.45;;;21.40;99.90;;;;;;5037202;28;20037;-52
2023/10/10 12:01:47;;;;;;;7.78;3.83;;;21.50;99.90;;;;;;5035841;28;20041;-52
2023/10/10 12:04:20;;;;;;;8.80;4.13;;;21.50;99.90;;;;;;5035435;28;20514;-49
2023/10/10 12:06:47;;;;;;;7.78;3.92;;;21.50;99.90;;;;;;5036682;28;20044;-53
2023/10/10 12:09:19;;;;;;;6.50;3.90;;;21.50;99.90;;;;;;5036293;28;20140;-52
2023/10/10 12:11:46;;;;;;;7.53;3.55;;;21.60;99.90;;;;;;5036964;28;20381;-54
2023/10/10 12:14:19;;;;;;;9.48;3.65;;;21.60;99.90;;;;;;5036797;28;20065;-51
2023/10/10 12:16:50;;;;;;;13.05;3.85;;;21.80;99.90;;;;;;5035543;28;20053;-53
2023/10/10 12:19:18;;;;;;;6.60;3.75;;;21.80;99.90;;;;;;5036561;28;20164;-55
2023/10/10 12:21:45;;;;;;;9.13;4.03;;;21.80;99.90;;;;;;5036761;28;20044;-53
2023/10/10 12:24:12;;;;;;;7.85;3.80;;;21.90;99.90;;;;;;5036336;28;20071;-53
2023/10/10 12:26:41;;;;;;;7.32;3.75;;;21.90;99.90;;;;;;5036242;28;20087;-55
2023/10/10 12:29:13;;;;;;;6.88;3.30;;;22.00;99.90;;;;;;5036402;28;20432;-53
2023/10/10 12:31:41;;;;;;;7.07;3.40;;;22.00;99.90;;;;;;5036671;28;20068;-51
2023/10/10 12:34:09;;;;;;;8.65;3.58;;;22.00;99.90;;;;;;5036399;28;20045;-55
2023/10/10 12:36:36;;;;;;;12.25;3.80;;;22.00;99.90;;;;;;5036158;28;20060;-51
2023/10/10 12:39:14;;;;;;;10.23;3.50;;;22.10;99.90;;;;;;5035919;28;20485;-55
2023/10/10 12:41:47;;;;;;;8.07;3.72;;;22.10;99.90;;;;;;5036289;28;20049;-53
2023/10/10 12:44:14;;;;;;;8.88;3.92;;;22.20;99.90;;;;;;5036393;28;20623;-49
2023/10/10 12:46:41;;;;;;;8.95;3.75;;;22.20;99.90;;;;;;5036261;28;20388;-55
2023/10/10 12:49:11;;;;;;;7.53;3.40;;;22.30;99.90;;;;;;5035807;28;20499;-52
2023/10/10 12:51:39;;;;;;;8.32;3.45;;;22.30;99.90;;;;;;5036260;28;20034;-55
2023/10/10 12:54:10;;;;;;;7.63;3.72;;;22.30;99.90;;;;;;5035931;28;20056;-56
2023/10/10 12:56:48;;;;;;;15.35;3.72;;;22.40;99.90;;;;;;5035102;28;20073;-53
2023/10/10 12:59:18;;;;;;;9.85;3.97;;;22.40;99.90;;;;;;5035985;28;20041;-51
2023/10/10 13:02:00;;;;;;;8.35;3.67;;;22.50;99.90;;;;;;5035789;28;20479;-51
2023/10/10 13:04:32;;;;;;;7.38;3.38;;;22.50;99.90;;;;;;5036130;28;20053;-52
2023/10/10 13:07:04;;;;;;;9.20;3.72;;;22.50;99.90;;;;;;5035339;28;20041;-57
2023/10/10 13:09:31;;;;;;;8.63;3.58;;;22.60;99.90;;;;;;5035991;28;20092;-51
2023/10/10 13:12:02;;;;;;;7.32;3.58;;;22.60;99.90;;;;;;5035721;28;20042;-52
2023/10/10 13:14:32;;;;;;;8.18;3.30;;;22.60;99.60;;;;;;5035532;28;20041;-56
2023/10/10 13:19:48;;;;;;;8.57;3.65;;;22.60;99.90;;;;;;5035386;28;20048;-52
2023/10/10 13:22:20;;;;;;;5.90;3.50;;;22.70;99.90;;;;;;5035610;28;20069;-54
2023/10/10 13:24:48;;;;;;;6.35;3.25;;;22.60;99.90;;;;;;5035556;28;20056;-55
2023/10/10 13:27:16;;;;;;;11.82;3.60;;;22.70;99.90;;;;;;5035161;28;20493;-51
2023/10/10 13:29:43;;;;;;;9.75;3.55;;;22.80;99.90;;;;;;5035219;28;20060;-53
2023/10/10 13:32:10;;;;;;;7.20;3.53;;;22.80;99.90;;;;;;5035350;28;20037;-57
2023/10/10 13:34:37;;;;;;;8.88;3.20;;;22.80;99.90;;;;;;5035533;28;20053;-54
2023/10/10 13:37:07;;;;;;;6.18;3.67;;;22.80;99.90;;;;;;5035140;28;20493;-58
2023/10/10 13:39:43;;;;;;;7.32;3.65;;;22.80;99.90;;;;;;5035032;28;20038;-56
2023/10/10 13:42:10;;;;;;;6.78;3.72;;;22.70;99.90;;;;;;5035457;28;20115;-55
2023/10/10 13:44:37;;;;;;;9.73;4.07;;;22.70;99.90;;;;;;5035102;28;20050;-54
2023/10/10 13:47:04;;;;;;;9.48;4.00;;;22.70;99.90;;;;;;5033684;28;20075;-57
2023/10/10 13:49:31;;;;;;;14.40;4.15;;;22.70;99.90;;;;;;5033430;28;20053;-55
2023/10/10 13:51:59;;;;;;;8.77;4.00;;;22.70;99.90;;;;;;5034959;28;20473;-54
2023/10/10 13:54:26;;;;;;;7.40;4.15;;;22.70;99.90;;;;;;5034815;28;20095;-55
2023/10/10 13:56:53;;;;;;;7.43;3.75;;;22.70;99.90;;;;;;5034632;28;20495;-53
2023/10/10 13:59:21;;;;;;;10.05;4.50;;;22.60;99.90;;;;;;5035020;28;20397;-57
2023/10/10 14:01:48;;;;;;;8.05;3.90;;;22.70;99.90;;;;;;5034766;28;20049;-54
2023/10/10 14:04:27;;;;;;;7.97;3.90;;;22.60;99.90;;;;;;5034994;28;20049;-50
2023/10/10 14:07:00;;;;;;;9.95;4.15;;;22.60;99.90;;;;;;5034095;28;20045;-52
2023/10/10 14:09:33;;;;;;;9.45;4.25;;;22.60;99.90;;;;;;5032986;28;20069;-57
2023/10/10 14:12:20;;;;;;;8.60;4.40;;;22.60;99.90;;;;;;5034343;28;20040;-56
2023/10/10 14:14:47;;;;;;;10.52;4.30;;;22.60;99.90;;;;;;5034078;28;20042;-55
2023/10/10 14:17:14;;;;;;;10.50;4.20;;;22.60;99.90;;;;;;5034000;28;20073;-55
2023/10/10 14:19:41;;;;;;;9.27;4.75;;;22.60;99.90;;;;;;5033913;28;20041;-54
2023/10/10 14:22:10;;;;;;;8.32;4.00;;;22.60;99.90;;;;;;5033921;28;20481;-55
2023/10/10 14:24:37;;;;;;;9.63;4.03;;;22.60;99.90;;;;;;5034024;28;20042;-57
2023/10/10 14:27:05;;;;;;;9.65;4.07;;;22.60;99.90;;;;;;5033711;28;20050;-53
2023/10/10 14:29:41;;;;;;;11.02;4.45;;;22.60;99.90;;;;;;5033667;28;20049;-52
2023/10/10 14:32:10;;;;;;;9.55;4.50;;;22.60;99.90;;;;;;5033857;28;20053;-54
2023/10/10 14:34:52;;;;;;;9.68;4.40;;;22.50;99.90;;;;;;5033589;28;20037;-56
2023/10/10 14:37:19;;;;;;;7.82;4.63;;;22.50;99.90;;;;;;5019217;28;20045;-56
2023/10/10 14:40:09;;;;;;;10.05;4.45;;;22.40;99.90;;;;;;5025954;28;20049;-57
2023/10/10 14:42:36;;;;;;;12.38;4.55;;;22.40;99.90;;;;;;5052373;28;20118;-53
2023/10/10 14:45:06;;;;;;;8.73;4.22;;;22.30;99.90;;;;;;5053200;28;20044;-48
2023/10/10 14:47:36;;;;;;;10.38;4.30;;;22.20;99.90;;;;;;5051375;28;20045;-56
2023/10/10 14:50:07;;;;;;;7.75;3.90;;;22.20;99.90;;;;;;5052513;28;20171;-50
2023/10/10 14:52:40;;;;;;;7.15;4.38;;;22.10;99.90;;;;;;5047629;28;20065;-53
2023/10/10 14:55:23;;;;;;;7.88;4.32;;;22.10;99.90;;;;;;5032605;28;20057;-55
2023/10/10 14:57:54;;;;;;;8.35;4.18;;;22.00;99.90;;;;;;5029389;28;20030;-53
2023/10/10 15:00:21;;;;;;;11.95;4.20;;;22.00;99.90;;;;;;5033640;28;20065;-57
2023/10/10 15:02:52;;;;;;;8.90;4.30;;;21.90;99.90;;;;;;5033309;28;20136;-57
2023/10/10 15:05:20;;;;;;;17.27;4.30;;;21.90;99.90;;;;;;5033166;28;20099;-53
2023/10/10 15:07:46;;;;;;;10.75;4.70;;;21.90;99.90;;;;;;5028747;28;20416;-54
2023/10/10 15:10:13;;;;;;;9.25;4.35;;;21.80;99.90;;;;;;5032871;28;20068;-53
2023/10/10 15:12:41;;;;;;;8.43;4.20;;;21.80;99.90;;;;;;5047846;28;20095;-52
2023/10/10 15:15:09;;;;;;;11.48;4.32;;;21.70;99.90;;;;;;5051361;28;20076;-56
2023/10/10 15:17:37;;;;;;;9.10;4.43;;;21.70;99.90;;;;;;5052167;28;20248;-55
2023/10/10 15:20:11;;;;;;;9.60;4.53;;;21.60;99.90;;;;;;5057419;28;20124;-56
2023/10/10 15:22:41;;;;;;;8.23;4.45;;;21.60;99.90;;;;;;5059272;28;20388;-57